sensor_id;sensor_type;location;lat;lon;timestamp;P1;durP1;ratioP1;P2;durP2;ratioP2
32976;SDS011;47687;50.842;4.450;2022-08-01T00:01:15;0.30;;;0.30;;
32976;SDS011;47687;50.842;4.450;2022-08-01T00:03:40;2.17;;;1.02;;
32976;SDS011;47687;50.842;4.450;2022-08-01T00:06:06;0.10;;;0.10;;
32976;SDS011;47687;50.842;4.450;2022-08-01T00:08:32;0.10;;;0.10;;
32976;SDS011;47687;50.842;4.450;2022-08-01T00:10:57;0.20;;;0.20;;
32976;SDS011;47687;50.842;4.450;2022-08-01T00:13:23;0.15;;;0.15;;
32976;SDS011;47687;50.842;4.450;2022-08-01T00:15:49;0.28;;;0.28;;
32976;SDS011;47687;50.842;4.450;2022-08-01T00:18:14;1.02;;;0.57;;
32976;SDS011;47687;50.842;4.450;2022-08-01T00:20:40;0.22;;;0.22;;
32976;SDS011;47687;50.842;4.450;2022-08-01T00:23:05;0.20;;;0.20;;
32976;SDS011;47687;50.842;4.450;2022-08-01T00:25:31;0.15;;;0.15;;
32976;SDS011;47687;50.842;4.450;2022-08-01T00:27:57;0.10;;;0.10;;
32976;SDS011;47687;50.842;4.450;2022-08-01T00:30:22;0.50;;;0.45;;
32976;SDS011;47687;50.842;4.450;2022-08-01T00:32:48;0.88;;;0.60;;
32976;SDS011;47687;50.842;4.450;2022-08-01T00:35:13;0.30;;;0.30;;
32976;SDS011;47687;50.842;4.450;2022-08-01T00:37:39;0.15;;;0.10;;
32976;SDS011;47687;50.842;4.450;2022-08-01T00:40:05;0.93;;;0.63;;
32976;SDS011;47687;50.842;4.450;2022-08-01T00:42:31;1.00;;;0.63;;
32976;SDS011;47687;50.842;4.450;2022-08-01T00:44:57;0.63;;;0.63;;
32976;SDS011;47687;50.842;4.450;2022-08-01T00:47:23;0.65;;;0.65;;
32976;SDS011;47687;50.842;4.450;2022-08-01T00:49:48;1.05;;;0.95;;
32976;SDS011;47687;50.842;4.450;2022-08-01T00:52:14;2.47;;;1.10;;
32976;SDS011;47687;50.842;4.450;2022-08-01T00:54:40;0.63;;;0.45;;
32976;SDS011;47687;50.842;4.450;2022-08-01T00:57:05;1.65;;;0.93;;
32976;SDS011;47687;50.842;4.450;2022-08-01T00:59:32;0.52;;;0.50;;
32976;SDS011;47687;50.842;4.450;2022-08-01T01:01:59;0.40;;;0.40;;
32976;SDS011;47687;50.842;4.450;2022-08-01T01:04:24;2.10;;;0.80;;
32976;SDS011;47687;50.842;4.450;2022-08-01T01:18:10;0.50;;;0.50;;
32976;SDS011;47687;50.842;4.450;2022-08-01T01:20:48;0.60;;;0.60;;
32976;SDS011;47687;50.842;4.450;2022-08-01T01:34:34;4.03;;;0.80;;
32976;SDS011;47687;50.842;4.450;2022-08-01T01:37:02;0.60;;;0.60;;
32976;SDS011;47687;50.842;4.450;2022-08-01T01:39:32;0.40;;;0.40;;
32976;SDS011;47687;50.842;4.450;2022-08-01T01:42:00;1.27;;;1.10;;
32976;SDS011;47687;50.842;4.450;2022-08-01T01:44:29;0.55;;;0.55;;
32976;SDS011;47687;50.842;4.450;2022-08-01T01:46:56;0.73;;;0.73;;
32976;SDS011;47687;50.842;4.450;2022-08-01T01:49:23;0.70;;;0.70;;
32976;SDS011;47687;50.842;4.450;2022-08-01T01:51:53;0.60;;;0.60;;
32976;SDS011;47687;50.842;4.450;2022-08-01T01:54:33;1.08;;;0.98;;
32976;SDS011;47687;50.842;4.450;2022-08-01T01:57:02;0.98;;;0.98;;
32976;SDS011;47687;50.842;4.450;2022-08-01T01:59:30;1.00;;;0.90;;
32976;SDS011;47687;50.842;4.450;2022-08-01T02:01:58;5.10;;;2.28;;
32976;SDS011;47687;50.842;4.450;2022-08-01T02:04:27;0.60;;;0.60;;
32976;SDS011;47687;50.842;4.450;2022-08-01T02:06:54;1.25;;;1.15;;
32976;SDS011;47687;50.842;4.450;2022-08-01T02:09:21;0.85;;;0.77;;
32976;SDS011;47687;50.842;4.450;2022-08-01T02:11:48;0.75;;;0.50;;
32976;SDS011;47687;50.842;4.450;2022-08-01T02:14:15;1.48;;;1.38;;
32976;SDS011;47687;50.842;4.450;2022-08-01T02:16:42;4.43;;;1.92;;
32976;SDS011;47687;50.842;4.450;2022-08-01T02:19:11;2.58;;;2.08;;
32976;SDS011;47687;50.842;4.450;2022-08-01T02:21:44;1.13;;;1.02;;
32976;SDS011;47687;50.842;4.450;2022-08-01T02:27:03;1.95;;;1.58;;
32976;SDS011;47687;50.842;4.450;2022-08-01T02:29:44;1.02;;;0.95;;
32976;SDS011;47687;50.842;4.450;2022-08-01T02:32:23;1.27;;;1.17;;
32976;SDS011;47687;50.842;4.450;2022-08-01T02:35:20;2.17;;;1.75;;
32976;SDS011;47687;50.842;4.450;2022-08-01T02:37:51;1.63;;;1.33;;
32976;SDS011;47687;50.842;4.450;2022-08-01T02:40:18;1.90;;;1.80;;
32976;SDS011;47687;50.842;4.450;2022-08-01T02:42:46;2.85;;;2.22;;
32976;SDS011;47687;50.842;4.450;2022-08-01T02:45:15;1.15;;;1.05;;
32976;SDS011;47687;50.842;4.450;2022-08-01T02:47:43;2.63;;;1.50;;
32976;SDS011;47687;50.842;4.450;2022-08-01T02:50:10;1.27;;;1.17;;
32976;SDS011;47687;50.842;4.450;2022-08-01T02:52:38;2.42;;;1.58;;
32976;SDS011;47687;50.842;4.450;2022-08-01T02:55:06;0.52;;;0.52;;
32976;SDS011;47687;50.842;4.450;2022-08-01T02:57:33;15.10;;;1.52;;
32976;SDS011;47687;50.842;4.450;2022-08-01T03:00:00;0.73;;;0.73;;
32976;SDS011;47687;50.842;4.450;2022-08-01T03:02:26;6.38;;;0.98;;
32976;SDS011;47687;50.842;4.450;2022-08-01T03:04:53;3.88;;;1.40;;
32976;SDS011;47687;50.842;4.450;2022-08-01T03:07:21;0.88;;;0.88;;
32976;SDS011;47687;50.842;4.450;2022-08-01T03:09:49;2.42;;;2.20;;
32976;SDS011;47687;50.842;4.450;2022-08-01T03:12:17;1.85;;;1.67;;
32976;SDS011;47687;50.842;4.450;2022-08-01T03:14:46;1.40;;;1.30;;
32976;SDS011;47687;50.842;4.450;2022-08-01T03:17:14;1.95;;;0.95;;
32976;SDS011;47687;50.842;4.450;2022-08-01T03:19:43;3.50;;;2.13;;
32976;SDS011;47687;50.842;4.450;2022-08-01T03:22:11;1.52;;;1.42;;
32976;SDS011;47687;50.842;4.450;2022-08-01T03:24:39;4.47;;;2.03;;
32976;SDS011;47687;50.842;4.450;2022-08-01T03:27:08;2.10;;;1.65;;
32976;SDS011;47687;50.842;4.450;2022-08-01T03:29:34;2.92;;;1.33;;
32976;SDS011;47687;50.842;4.450;2022-08-01T03:32:01;10.30;;;2.90;;
32976;SDS011;47687;50.842;4.450;2022-08-01T03:34:28;2.08;;;1.83;;
32976;SDS011;47687;50.842;4.450;2022-08-01T03:37:09;2.10;;;1.98;;
32976;SDS011;47687;50.842;4.450;2022-08-01T03:39:44;1.77;;;1.67;;
32976;SDS011;47687;50.842;4.450;2022-08-01T03:42:19;2.58;;;2.00;;
32976;SDS011;47687;50.842;4.450;2022-08-01T03:44:59;1.40;;;1.30;;
32976;SDS011;47687;50.842;4.450;2022-08-01T03:47:30;3.17;;;1.70;;
32976;SDS011;47687;50.842;4.450;2022-08-01T03:49:58;6.03;;;2.20;;
32976;SDS011;47687;50.842;4.450;2022-08-01T03:52:26;2.08;;;1.27;;
32976;SDS011;47687;50.842;4.450;2022-08-01T03:54:54;1.92;;;1.73;;
32976;SDS011;47687;50.842;4.450;2022-08-01T03:57:22;8.55;;;2.85;;
32976;SDS011;47687;50.842;4.450;2022-08-01T03:59:50;3.40;;;2.25;;
32976;SDS011;47687;50.842;4.450;2022-08-01T04:02:16;1.05;;;0.98;;
32976;SDS011;47687;50.842;4.450;2022-08-01T04:04:43;8.32;;;2.97;;
32976;SDS011;47687;50.842;4.450;2022-08-01T04:07:25;3.53;;;2.38;;
32976;SDS011;47687;50.842;4.450;2022-08-01T04:09:52;1.02;;;0.90;;
32976;SDS011;47687;50.842;4.450;2022-08-01T04:12:18;1.52;;;1.42;;
32976;SDS011;47687;50.842;4.450;2022-08-01T04:14:45;2.35;;;2.15;;
32976;SDS011;47687;50.842;4.450;2022-08-01T04:17:11;1.45;;;0.90;;
32976;SDS011;47687;50.842;4.450;2022-08-01T04:19:37;1.40;;;1.30;;
32976;SDS011;47687;50.842;4.450;2022-08-01T04:22:03;3.10;;;2.15;;
32976;SDS011;47687;50.842;4.450;2022-08-01T04:24:30;5.13;;;2.45;;
32976;SDS011;47687;50.842;4.450;2022-08-01T04:27:00;4.25;;;2.35;;
32976;SDS011;47687;50.842;4.450;2022-08-01T04:29:28;1.58;;;1.30;;
32976;SDS011;47687;50.842;4.450;2022-08-01T04:31:56;2.50;;;1.65;;
32976;SDS011;47687;50.842;4.450;2022-08-01T04:34:25;3.92;;;2.40;;
32976;SDS011;47687;50.842;4.450;2022-08-01T04:36:54;1.60;;;1.50;;
32976;SDS011;47687;50.842;4.450;2022-08-01T04:39:22;1.80;;;1.65;;
32976;SDS011;47687;50.842;4.450;2022-08-01T04:41:52;1.67;;;1.58;;
32976;SDS011;47687;50.842;4.450;2022-08-01T04:44:22;1.80;;;1.70;;
32976;SDS011;47687;50.842;4.450;2022-08-01T04:46:49;17.00;;;2.45;;
32976;SDS011;47687;50.842;4.450;2022-08-01T04:49:19;2.15;;;1.88;;
32976;SDS011;47687;50.842;4.450;2022-08-01T04:51:53;2.50;;;2.30;;
32976;SDS011;47687;50.842;4.450;2022-08-01T04:54:23;1.00;;;1.00;;
32976;SDS011;47687;50.842;4.450;2022-08-01T04:56:50;2.10;;;2.00;;
32976;SDS011;47687;50.842;4.450;2022-08-01T04:59:15;4.25;;;2.83;;
32976;SDS011;47687;50.842;4.450;2022-08-01T05:01:59;2.30;;;2.10;;
32976;SDS011;47687;50.842;4.450;2022-08-01T05:04:25;3.03;;;2.35;;
32976;SDS011;47687;50.842;4.450;2022-08-01T05:06:51;2.38;;;1.95;;
32976;SDS011;47687;50.842;4.450;2022-08-01T05:09:16;2.40;;;1.92;;
32976;SDS011;47687;50.842;4.450;2022-08-01T05:11:42;9.90;;;2.72;;
32976;SDS011;47687;50.842;4.450;2022-08-01T05:14:15;6.93;;;4.53;;
32976;SDS011;47687;50.842;4.450;2022-08-01T05:16:45;3.58;;;2.45;;
32976;SDS011;47687;50.842;4.450;2022-08-01T05:19:14;1.83;;;1.73;;
32976;SDS011;47687;50.842;4.450;2022-08-01T05:21:39;3.63;;;3.25;;
32976;SDS011;47687;50.842;4.450;2022-08-01T05:24:05;2.47;;;2.28;;
32976;SDS011;47687;50.842;4.450;2022-08-01T05:26:31;2.55;;;2.35;;
32976;SDS011;47687;50.842;4.450;2022-08-01T05:28:56;1.70;;;1.60;;
32976;SDS011;47687;50.842;4.450;2022-08-01T05:31:22;4.68;;;2.47;;
32976;SDS011;47687;50.842;4.450;2022-08-01T05:33:47;2.35;;;2.13;;
32976;SDS011;47687;50.842;4.450;2022-08-01T05:36:13;16.20;;;1.75;;
32976;SDS011;47687;50.842;4.450;2022-08-01T05:38:39;2.70;;;2.30;;
32976;SDS011;47687;50.842;4.450;2022-08-01T05:41:05;0.80;;;0.80;;
32976;SDS011;47687;50.842;4.450;2022-08-01T05:43:30;2.35;;;1.58;;
32976;SDS011;47687;50.842;4.450;2022-08-01T05:45:56;1.05;;;1.05;;
32976;SDS011;47687;50.842;4.450;2022-08-01T05:48:23;0.73;;;0.73;;
32976;SDS011;47687;50.842;4.450;2022-08-01T05:50:49;2.17;;;1.65;;
32976;SDS011;47687;50.842;4.450;2022-08-01T05:53:16;3.33;;;2.03;;
32976;SDS011;47687;50.842;4.450;2022-08-01T05:55:41;1.00;;;0.90;;
32976;SDS011;47687;50.842;4.450;2022-08-01T05:58:07;1.88;;;1.73;;
32976;SDS011;47687;50.842;4.450;2022-08-01T06:00:33;1.17;;;1.08;;
32976;SDS011;47687;50.842;4.450;2022-08-01T06:02:58;1.25;;;1.15;;
32976;SDS011;47687;50.842;4.450;2022-08-01T06:05:24;2.15;;;1.95;;
32976;SDS011;47687;50.842;4.450;2022-08-01T06:07:49;0.95;;;0.95;;
32976;SDS011;47687;50.842;4.450;2022-08-01T06:10:15;1.02;;;1.00;;
32976;SDS011;47687;50.842;4.450;2022-08-01T06:12:41;3.05;;;2.05;;
32976;SDS011;47687;50.842;4.450;2022-08-01T06:15:07;0.47;;;0.47;;
32976;SDS011;47687;50.842;4.450;2022-08-01T06:17:33;0.75;;;0.75;;
32976;SDS011;47687;50.842;4.450;2022-08-01T06:19:59;1.33;;;1.23;;
32976;SDS011;47687;50.842;4.450;2022-08-01T06:22:25;1.67;;;1.23;;
32976;SDS011;47687;50.842;4.450;2022-08-01T06:24:51;0.65;;;0.65;;
32976;SDS011;47687;50.842;4.450;2022-08-01T06:27:17;0.68;;;0.68;;
32976;SDS011;47687;50.842;4.450;2022-08-01T06:29:43;1.45;;;0.90;;
32976;SDS011;47687;50.842;4.450;2022-08-01T06:32:09;1.48;;;1.38;;
32976;SDS011;47687;50.842;4.450;2022-08-01T06:34:34;2.28;;;1.40;;
32976;SDS011;47687;50.842;4.450;2022-08-01T06:37:00;3.38;;;2.22;;
32976;SDS011;47687;50.842;4.450;2022-08-01T06:39:26;1.23;;;1.10;;
32976;SDS011;47687;50.842;4.450;2022-08-01T06:41:52;0.35;;;0.35;;
32976;SDS011;47687;50.842;4.450;2022-08-01T06:44:17;0.77;;;0.77;;
32976;SDS011;47687;50.842;4.450;2022-08-01T06:46:43;1.15;;;0.90;;
32976;SDS011;47687;50.842;4.450;2022-08-01T06:49:09;0.57;;;0.47;;
32976;SDS011;47687;50.842;4.450;2022-08-01T06:51:34;0.32;;;0.32;;
32976;SDS011;47687;50.842;4.450;2022-08-01T06:54:00;0.30;;;0.30;;
32976;SDS011;47687;50.842;4.450;2022-08-01T06:56:26;0.55;;;0.55;;
32976;SDS011;47687;50.842;4.450;2022-08-01T06:58:51;0.75;;;0.75;;
32976;SDS011;47687;50.842;4.450;2022-08-01T07:01:17;0.57;;;0.57;;
32976;SDS011;47687;50.842;4.450;2022-08-01T07:03:43;0.73;;;0.73;;
32976;SDS011;47687;50.842;4.450;2022-08-01T07:06:08;0.25;;;0.17;;
32976;SDS011;47687;50.842;4.450;2022-08-01T07:08:34;0.40;;;0.40;;
32976;SDS011;47687;50.842;4.450;2022-08-01T07:11:00;0.85;;;0.85;;
32976;SDS011;47687;50.842;4.450;2022-08-01T07:13:27;0.82;;;0.73;;
32976;SDS011;47687;50.842;4.450;2022-08-01T07:15:53;0.32;;;0.32;;
32976;SDS011;47687;50.842;4.450;2022-08-01T07:18:19;1.23;;;1.13;;
32976;SDS011;47687;50.842;4.450;2022-08-01T07:20:44;1.10;;;1.00;;
32976;SDS011;47687;50.842;4.450;2022-08-01T07:23:11;1.15;;;1.00;;
32976;SDS011;47687;50.842;4.450;2022-08-01T07:25:37;2.15;;;0.70;;
32976;SDS011;47687;50.842;4.450;2022-08-01T07:28:03;1.05;;;1.05;;
32976;SDS011;47687;50.842;4.450;2022-08-01T07:30:29;0.10;;;0.10;;
32976;SDS011;47687;50.842;4.450;2022-08-01T07:32:55;0.68;;;0.55;;
32976;SDS011;47687;50.842;4.450;2022-08-01T07:35:21;0.20;;;0.20;;
32976;SDS011;47687;50.842;4.450;2022-08-01T07:37:46;2.75;;;1.05;;
32976;SDS011;47687;50.842;4.450;2022-08-01T07:40:12;0.38;;;0.38;;
32976;SDS011;47687;50.842;4.450;2022-08-01T07:42:38;0.20;;;0.20;;
32976;SDS011;47687;50.842;4.450;2022-08-01T07:45:03;0.28;;;0.28;;
32976;SDS011;47687;50.842;4.450;2022-08-01T07:47:29;0.20;;;0.20;;
32976;SDS011;47687;50.842;4.450;2022-08-01T07:49:58;0.10;;;0.10;;
32976;SDS011;47687;50.842;4.450;2022-08-01T07:52:25;0.30;;;0.30;;
32976;SDS011;47687;50.842;4.450;2022-08-01T07:54:52;5.65;;;2.15;;
32976;SDS011;47687;50.842;4.450;2022-08-01T07:57:17;0.20;;;0.20;;
32976;SDS011;47687;50.842;4.450;2022-08-01T07:59:43;0.35;;;0.20;;
32976;SDS011;47687;50.842;4.450;2022-08-01T08:02:09;0.20;;;0.20;;
32976;SDS011;47687;50.842;4.450;2022-08-01T08:04:34;0.20;;;0.20;;
32976;SDS011;47687;50.842;4.450;2022-08-01T08:07:00;0.25;;;0.25;;
32976;SDS011;47687;50.842;4.450;2022-08-01T08:09:26;0.30;;;0.30;;
32976;SDS011;47687;50.842;4.450;2022-08-01T08:11:52;0.52;;;0.52;;
32976;SDS011;47687;50.842;4.450;2022-08-01T08:14:17;1.20;;;1.05;;
32976;SDS011;47687;50.842;4.450;2022-08-01T08:16:43;0.52;;;0.52;;
32976;SDS011;47687;50.842;4.450;2022-08-01T08:19:09;0.30;;;0.30;;
32976;SDS011;47687;50.842;4.450;2022-08-01T08:21:35;0.10;;;0.10;;
32976;SDS011;47687;50.842;4.450;2022-08-01T08:24:01;0.75;;;0.75;;
32976;SDS011;47687;50.842;4.450;2022-08-01T08:26:49;3.70;;;0.57;;
32976;SDS011;47687;50.842;4.450;2022-08-01T08:29:18;0.20;;;0.20;;
32976;SDS011;47687;50.842;4.450;2022-08-01T08:31:44;0.28;;;0.28;;
32976;SDS011;47687;50.842;4.450;2022-08-01T08:34:10;0.30;;;0.30;;
32976;SDS011;47687;50.842;4.450;2022-08-01T08:36:35;0.20;;;0.20;;
32976;SDS011;47687;50.842;4.450;2022-08-01T08:39:02;0.32;;;0.32;;
32976;SDS011;47687;50.842;4.450;2022-08-01T08:41:29;0.15;;;0.15;;
32976;SDS011;47687;50.842;4.450;2022-08-01T08:43:55;0.35;;;0.35;;
32976;SDS011;47687;50.842;4.450;2022-08-01T08:46:23;0.75;;;0.43;;
32976;SDS011;47687;50.842;4.450;2022-08-01T08:48:50;0.15;;;0.15;;
32976;SDS011;47687;50.842;4.450;2022-08-01T08:51:17;0.10;;;0.10;;
32976;SDS011;47687;50.842;4.450;2022-08-01T08:53:44;0.20;;;0.20;;
32976;SDS011;47687;50.842;4.450;2022-08-01T08:56:11;0.52;;;0.45;;
32976;SDS011;47687;50.842;4.450;2022-08-01T08:58:38;0.15;;;0.15;;
32976;SDS011;47687;50.842;4.450;2022-08-01T09:01:08;0.60;;;0.60;;
32976;SDS011;47687;50.842;4.450;2022-08-01T09:03:35;0.10;;;0.10;;
32976;SDS011;47687;50.842;4.450;2022-08-01T09:06:01;0.73;;;0.73;;
32976;SDS011;47687;50.842;4.450;2022-08-01T09:08:27;0.10;;;0.10;;
32976;SDS011;47687;50.842;4.450;2022-08-01T09:10:54;0.10;;;0.10;;
32976;SDS011;47687;50.842;4.450;2022-08-01T09:13:19;0.10;;;0.10;;
32976;SDS011;47687;50.842;4.450;2022-08-01T09:15:52;0.60;;;0.57;;
32976;SDS011;47687;50.842;4.450;2022-08-01T09:18:38;0.10;;;0.10;;
32976;SDS011;47687;50.842;4.450;2022-08-01T09:26:11;0.32;;;0.30;;
32976;SDS011;47687;50.842;4.450;2022-08-01T09:28:38;0.10;;;0.10;;
32976;SDS011;47687;50.842;4.450;2022-08-01T09:31:11;1.27;;;0.40;;
32976;SDS011;47687;50.842;4.450;2022-08-01T09:33:59;0.10;;;0.10;;
32976;SDS011;47687;50.842;4.450;2022-08-01T09:36:49;0.50;;;0.50;;
32976;SDS011;47687;50.842;4.450;2022-08-01T09:39:25;0.13;;;0.13;;
32976;SDS011;47687;50.842;4.450;2022-08-01T09:41:53;0.60;;;0.57;;
32976;SDS011;47687;50.842;4.450;2022-08-01T09:44:25;0.90;;;0.57;;
32976;SDS011;47687;50.842;4.450;2022-08-01T09:47:05;0.10;;;0.10;;
32976;SDS011;47687;50.842;4.450;2022-08-01T09:49:33;0.25;;;0.20;;
32976;SDS011;47687;50.842;4.450;2022-08-01T09:52:22;0.10;;;0.10;;
32976;SDS011;47687;50.842;4.450;2022-08-01T09:57:29;0.10;;;0.10;;
32976;SDS011;47687;50.842;4.450;2022-08-01T09:59:55;0.20;;;0.20;;
32976;SDS011;47687;50.842;4.450;2022-08-01T10:02:41;0.20;;;0.20;;
32976;SDS011;47687;50.842;4.450;2022-08-01T10:05:07;0.25;;;0.25;;
32976;SDS011;47687;50.842;4.450;2022-08-01T10:08:20;0.10;;;0.10;;
32976;SDS011;47687;50.842;4.450;2022-08-01T10:10:21;0.57;;;0.57;;
32976;SDS011;47687;50.842;4.450;2022-08-01T10:12:47;0.20;;;0.20;;
32976;SDS011;47687;50.842;4.450;2022-08-01T10:15:16;0.20;;;0.20;;
32976;SDS011;47687;50.842;4.450;2022-08-01T10:17:46;0.20;;;0.20;;
32976;SDS011;47687;50.842;4.450;2022-08-01T10:20:21;0.20;;;0.20;;
32976;SDS011;47687;50.842;4.450;2022-08-01T10:22:51;0.10;;;0.10;;
32976;SDS011;47687;50.842;4.450;2022-08-01T10:25:18;4.10;;;0.40;;
32976;SDS011;47687;50.842;4.450;2022-08-01T10:27:45;0.20;;;0.20;;
32976;SDS011;47687;50.842;4.450;2022-08-01T10:30:14;0.55;;;0.32;;
32976;SDS011;47687;50.842;4.450;2022-08-01T10:32:40;0.10;;;0.10;;
32976;SDS011;47687;50.842;4.450;2022-08-01T10:35:09;0.10;;;0.10;;
32976;SDS011;47687;50.842;4.450;2022-08-01T10:37:40;0.10;;;0.10;;
32976;SDS011;47687;50.842;4.450;2022-08-01T10:40:07;0.10;;;0.10;;
32976;SDS011;47687;50.842;4.450;2022-08-01T10:42:34;0.10;;;0.10;;
32976;SDS011;47687;50.842;4.450;2022-08-01T10:45:00;0.20;;;0.20;;
32976;SDS011;47687;50.842;4.450;2022-08-01T10:47:44;0.10;;;0.10;;
32976;SDS011;47687;50.842;4.450;2022-08-01T10:50:25;0.20;;;0.20;;
32976;SDS011;47687;50.842;4.450;2022-08-01T11:03:55;0.22;;;0.20;;
32976;SDS011;47687;50.842;4.450;2022-08-01T11:09:03;0.20;;;0.20;;
32976;SDS011;47687;50.842;4.450;2022-08-01T11:11:30;1.13;;;0.95;;
32976;SDS011;47687;50.842;4.450;2022-08-01T11:16:45;0.45;;;0.32;;
32976;SDS011;47687;50.842;4.450;2022-08-01T11:19:10;0.22;;;0.22;;
32976;SDS011;47687;50.842;4.450;2022-08-01T11:27:17;0.40;;;0.40;;
32976;SDS011;47687;50.842;4.450;2022-08-01T11:32:47;0.30;;;0.30;;
32976;SDS011;47687;50.842;4.450;2022-08-01T11:35:20;0.20;;;0.20;;
32976;SDS011;47687;50.842;4.450;2022-08-01T11:37:48;0.20;;;0.20;;
32976;SDS011;47687;50.842;4.450;2022-08-01T11:42:50;0.20;;;0.20;;
32976;SDS011;47687;50.842;4.450;2022-08-01T11:45:50;0.65;;;0.55;;
32976;SDS011;47687;50.842;4.450;2022-08-01T11:48:21;0.10;;;0.10;;
32976;SDS011;47687;50.842;4.450;2022-08-01T11:50:52;0.20;;;0.20;;
32976;SDS011;47687;50.842;4.450;2022-08-01T11:53:18;0.45;;;0.45;;
32976;SDS011;47687;50.842;4.450;2022-08-01T11:55:46;0.57;;;0.57;;
32976;SDS011;47687;50.842;4.450;2022-08-01T11:58:20;0.10;;;0.10;;
32976;SDS011;47687;50.842;4.450;2022-08-01T12:00:53;0.17;;;0.17;;
32976;SDS011;47687;50.842;4.450;2022-08-01T12:03:24;0.10;;;0.10;;
32976;SDS011;47687;50.842;4.450;2022-08-01T12:05:55;0.10;;;0.10;;
32976;SDS011;47687;50.842;4.450;2022-08-01T12:08:25;0.10;;;0.10;;
32976;SDS011;47687;50.842;4.450;2022-08-01T12:10:57;0.20;;;0.20;;
32976;SDS011;47687;50.842;4.450;2022-08-01T12:13:24;0.20;;;0.20;;
32976;SDS011;47687;50.842;4.450;2022-08-01T12:15:50;2.00;;;0.55;;
32976;SDS011;47687;50.842;4.450;2022-08-01T12:18:16;0.10;;;0.10;;
32976;SDS011;47687;50.842;4.450;2022-08-01T12:20:43;0.47;;;0.47;;
32976;SDS011;47687;50.842;4.450;2022-08-01T12:23:14;0.10;;;0.10;;
32976;SDS011;47687;50.842;4.450;2022-08-01T12:25:40;0.10;;;0.10;;
32976;SDS011;47687;50.842;4.450;2022-08-01T12:28:09;0.20;;;0.20;;
32976;SDS011;47687;50.842;4.450;2022-08-01T12:30:46;2.05;;;0.43;;
32976;SDS011;47687;50.842;4.450;2022-08-01T12:33:16;0.10;;;0.10;;
32976;SDS011;47687;50.842;4.450;2022-08-01T12:35:44;20.48;;;2.08;;
32976;SDS011;47687;50.842;4.450;2022-08-01T12:38:19;0.20;;;0.20;;
32976;SDS011;47687;50.842;4.450;2022-08-01T12:40:47;0.10;;;0.10;;
32976;SDS011;47687;50.842;4.450;2022-08-01T12:43:17;0.38;;;0.38;;
32976;SDS011;47687;50.842;4.450;2022-08-01T12:45:45;0.38;;;0.38;;
32976;SDS011;47687;50.842;4.450;2022-08-01T12:48:14;0.10;;;0.10;;
32976;SDS011;47687;50.842;4.450;2022-08-01T12:50:42;0.20;;;0.17;;
32976;SDS011;47687;50.842;4.450;2022-08-01T12:53:12;0.20;;;0.10;;
32976;SDS011;47687;50.842;4.450;2022-08-01T12:55:47;0.10;;;0.10;;
32976;SDS011;47687;50.842;4.450;2022-08-01T12:58:15;0.10;;;0.10;;
32976;SDS011;47687;50.842;4.450;2022-08-01T13:00:42;0.10;;;0.10;;
32976;SDS011;47687;50.842;4.450;2022-08-01T13:03:13;0.73;;;0.73;;
32976;SDS011;47687;50.842;4.450;2022-08-01T13:11:05;0.10;;;0.10;;
32976;SDS011;47687;50.842;4.450;2022-08-01T13:13:45;0.10;;;0.10;;
32976;SDS011;47687;50.842;4.450;2022-08-01T13:16:13;0.57;;;0.45;;
32976;SDS011;47687;50.842;4.450;2022-08-01T13:18:40;0.10;;;0.10;;
32976;SDS011;47687;50.842;4.450;2022-08-01T13:21:22;0.45;;;0.30;;
32976;SDS011;47687;50.842;4.450;2022-08-01T13:24:05;0.73;;;0.57;;
32976;SDS011;47687;50.842;4.450;2022-08-01T13:26:41;0.10;;;0.10;;
32976;SDS011;47687;50.842;4.450;2022-08-01T13:29:09;0.20;;;0.20;;
32976;SDS011;47687;50.842;4.450;2022-08-01T13:31:45;0.10;;;0.10;;
32976;SDS011;47687;50.842;4.450;2022-08-01T13:34:14;0.10;;;0.10;;
32976;SDS011;47687;50.842;4.450;2022-08-01T13:36:40;0.10;;;0.10;;
32976;SDS011;47687;50.842;4.450;2022-08-01T13:39:06;0.20;;;0.20;;
32976;SDS011;47687;50.842;4.450;2022-08-01T13:41:51;0.10;;;0.10;;
32976;SDS011;47687;50.842;4.450;2022-08-01T13:44:17;0.00;;;0.00;;
32976;SDS011;47687;50.842;4.450;2022-08-01T13:46:43;0.30;;;0.30;;
32976;SDS011;47687;50.842;4.450;2022-08-01T13:49:09;0.10;;;0.10;;
32976;SDS011;47687;50.842;4.450;2022-08-01T13:51:36;0.75;;;0.63;;
32976;SDS011;47687;50.842;4.450;2022-08-01T13:54:03;0.20;;;0.20;;
32976;SDS011;47687;50.842;4.450;2022-08-01T13:56:30;0.20;;;0.20;;
32976;SDS011;47687;50.842;4.450;2022-08-01T13:58:57;0.25;;;0.25;;
32976;SDS011;47687;50.842;4.450;2022-08-01T14:01:23;0.10;;;0.10;;
32976;SDS011;47687;50.842;4.450;2022-08-01T14:03:49;0.20;;;0.20;;
32976;SDS011;47687;50.842;4.450;2022-08-01T14:06:18;0.10;;;0.10;;
32976;SDS011;47687;50.842;4.450;2022-08-01T14:08:48;0.10;;;0.10;;
32976;SDS011;47687;50.842;4.450;2022-08-01T14:11:14;0.13;;;0.13;;
32976;SDS011;47687;50.842;4.450;2022-08-01T14:13:40;0.20;;;0.20;;
32976;SDS011;47687;50.842;4.450;2022-08-01T14:16:06;0.10;;;0.10;;
32976;SDS011;47687;50.842;4.450;2022-08-01T14:18:31;0.10;;;0.10;;
32976;SDS011;47687;50.842;4.450;2022-08-01T14:20:57;0.32;;;0.32;;
32976;SDS011;47687;50.842;4.450;2022-08-01T14:23:24;0.10;;;0.10;;
32976;SDS011;47687;50.842;4.450;2022-08-01T14:25:50;0.25;;;0.25;;
32976;SDS011;47687;50.842;4.450;2022-08-01T14:28:16;0.95;;;0.40;;
32976;SDS011;47687;50.842;4.450;2022-08-01T14:30:42;0.73;;;0.65;;
32976;SDS011;47687;50.842;4.450;2022-08-01T14:33:08;0.22;;;0.22;;
32976;SDS011;47687;50.842;4.450;2022-08-01T14:35:34;2.88;;;0.88;;
32976;SDS011;47687;50.842;4.450;2022-08-01T14:38:00;0.10;;;0.10;;
32976;SDS011;47687;50.842;4.450;2022-08-01T14:40:25;0.25;;;0.25;;
32976;SDS011;47687;50.842;4.450;2022-08-01T14:42:51;0.60;;;0.60;;
32976;SDS011;47687;50.842;4.450;2022-08-01T14:45:17;4.13;;;0.85;;
32976;SDS011;47687;50.842;4.450;2022-08-01T14:47:42;1.67;;;0.68;;
32976;SDS011;47687;50.842;4.450;2022-08-01T14:50:10;2.10;;;0.73;;
32976;SDS011;47687;50.842;4.450;2022-08-01T14:52:37;0.20;;;0.20;;
32976;SDS011;47687;50.842;4.450;2022-08-01T14:55:04;0.30;;;0.30;;
32976;SDS011;47687;50.842;4.450;2022-08-01T14:57:31;0.20;;;0.20;;
32976;SDS011;47687;50.842;4.450;2022-08-01T14:59:56;0.45;;;0.35;;
32976;SDS011;47687;50.842;4.450;2022-08-01T15:02:22;0.20;;;0.20;;
32976;SDS011;47687;50.842;4.450;2022-08-01T15:04:48;0.10;;;0.10;;
32976;SDS011;47687;50.842;4.450;2022-08-01T15:07:14;0.40;;;0.40;;
32976;SDS011;47687;50.842;4.450;2022-08-01T15:09:41;0.15;;;0.13;;
32976;SDS011;47687;50.842;4.450;2022-08-01T15:12:08;0.10;;;0.10;;
32976;SDS011;47687;50.842;4.450;2022-08-01T15:14:35;0.17;;;0.17;;
32976;SDS011;47687;50.842;4.450;2022-08-01T15:17:22;0.38;;;0.38;;
32976;SDS011;47687;50.842;4.450;2022-08-01T15:19:52;0.20;;;0.20;;
32976;SDS011;47687;50.842;4.450;2022-08-01T15:22:19;0.20;;;0.20;;
32976;SDS011;47687;50.842;4.450;2022-08-01T15:24:46;0.20;;;0.20;;
32976;SDS011;47687;50.842;4.450;2022-08-01T15:27:13;0.20;;;0.20;;
32976;SDS011;47687;50.842;4.450;2022-08-01T15:29:38;0.65;;;0.30;;
32976;SDS011;47687;50.842;4.450;2022-08-01T15:32:04;0.10;;;0.10;;
32976;SDS011;47687;50.842;4.450;2022-08-01T15:34:31;0.10;;;0.10;;
32976;SDS011;47687;50.842;4.450;2022-08-01T15:37:01;0.93;;;0.65;;
32976;SDS011;47687;50.842;4.450;2022-08-01T15:39:27;0.10;;;0.10;;
32976;SDS011;47687;50.842;4.450;2022-08-01T15:41:53;0.30;;;0.30;;
32976;SDS011;47687;50.842;4.450;2022-08-01T15:44:19;0.10;;;0.10;;
32976;SDS011;47687;50.842;4.450;2022-08-01T15:46:47;0.20;;;0.20;;
32976;SDS011;47687;50.842;4.450;2022-08-01T15:49:13;0.10;;;0.10;;
32976;SDS011;47687;50.842;4.450;2022-08-01T15:51:39;0.10;;;0.10;;
32976;SDS011;47687;50.842;4.450;2022-08-01T15:54:05;0.10;;;0.10;;
32976;SDS011;47687;50.842;4.450;2022-08-01T15:56:31;0.10;;;0.10;;
32976;SDS011;47687;50.842;4.450;2022-08-01T15:58:57;0.10;;;0.10;;
32976;SDS011;47687;50.842;4.450;2022-08-01T16:01:23;0.25;;;0.25;;